createdAt,value
2023-04-18T00:09:24.532Z,46.54
2023-04-18T00:19:26.776Z,45.58
2023-04-18T00:29:29.323Z,45.26
2023-04-18T00:39:31.404Z,46.34
2023-04-18T00:49:33.635Z,48.01
2023-04-18T00:59:35.752Z,47.68
2023-04-18T01:09:37.887Z,48.54
2023-04-18T01:19:40.737Z,47.74
2023-04-18T01:29:42.861Z,47.43
2023-04-18T01:39:45.106Z,46.44
2023-04-18T01:49:48.349Z,48.26
2023-04-18T01:59:50.629Z,48.21
2023-04-18T02:09:53.765Z,48.69
2023-04-18T02:19:56.034Z,46.55
2023-04-18T02:29:58.196Z,48.42
2023-04-18T02:40:00.300Z,48.55
2023-04-18T02:50:06.453Z,49.34
2023-04-18T03:00:10.119Z,47.55
2023-04-18T03:10:42.504Z,49.15
2023-04-18T03:20:45.380Z,48.80
2023-04-18T03:30:47.867Z,50.00
2023-04-18T03:40:50.615Z,49.58
2023-04-18T03:51:00.774Z,49.21
2023-04-18T04:01:03.306Z,49.45
2023-04-18T04:11:05.851Z,49.10
2023-04-18T04:21:08.818Z,51.28
2023-04-18T04:31:19.927Z,50.89
2023-04-18T04:41:22.757Z,50.28
2023-04-18T04:51:26.010Z,50.14
2023-04-18T05:01:28.488Z,50.35
2023-04-18T05:11:31.132Z,50.18
2023-04-18T05:21:33.421Z,51.59
2023-04-18T05:31:36.275Z,51.12
2023-04-18T05:41:38.514Z,52.66
2023-04-18T05:51:41.002Z,49.32
2023-04-18T06:01:43.561Z,52.92
2023-04-18T06:11:45.677Z,52.37
2023-04-18T06:21:48.835Z,51.08
2023-04-18T06:31:52.025Z,51.10
2023-04-18T06:41:54.182Z,51.26
2023-04-18T06:52:03.604Z,51.05
2023-04-18T07:02:05.705Z,51.01
2023-04-18T07:12:07.873Z,51.27
2023-04-18T07:22:10.261Z,51.96
2023-04-18T07:32:12.453Z,52.13
2023-04-18T07:42:14.721Z,52.95
2023-04-18T07:52:16.807Z,52.48
2023-04-18T08:02:18.922Z,53.17
2023-04-18T08:12:21.086Z,50.90
2023-04-18T08:22:23.210Z,51.00
2023-04-18T08:32:25.865Z,50.27
2023-04-18T08:42:28.018Z,52.05
2023-04-18T08:52:31.087Z,53.62
2023-04-18T09:02:42.786Z,53.09
2023-04-18T09:12:52.376Z,52.17
2023-04-18T09:22:57.967Z,53.14
2023-04-18T09:33:01.733Z,52.60
2023-04-18T09:43:19.983Z,51.74
2023-04-18T09:53:22.853Z,50.45
2023-04-18T10:03:28.952Z,50.93
2023-04-18T10:13:32.007Z,49.27
2023-04-18T10:23:36.483Z,50.64
2023-04-18T10:33:42.557Z,49.22
2023-04-18T10:44:23.696Z,47.56
2023-04-18T10:54:47.984Z,48.10
2023-04-18T11:04:57.298Z,46.27
2023-04-18T11:15:01.378Z,48.48
2023-04-18T11:25:09.926Z,46.90
2023-04-18T11:35:13.426Z,45.50
2023-04-18T11:45:15.916Z,45.67
2023-04-18T11:55:25.164Z,46.19
2023-04-18T12:05:34.793Z,45.28
2023-04-18T12:15:43.469Z,44.67
2023-04-18T12:25:45.677Z,45.49
2023-04-18T12:35:49.535Z,46.32
2023-04-18T12:45:52.156Z,44.05
2023-04-18T12:55:54.285Z,43.82
2023-04-18T13:05:56.321Z,42.52
2023-04-18T13:15:58.523Z,40.94
2023-04-18T13:26:00.808Z,42.93
2023-04-18T13:36:03.219Z,42.29
2023-04-18T13:46:05.478Z,40.31
2023-04-18T13:56:07.891Z,40.99
2023-04-18T14:06:10.117Z,41.73
2023-04-18T14:16:12.473Z,42.02
2023-04-18T14:26:14.820Z,40.03
2023-04-18T14:36:17.539Z,38.93
2023-04-18T14:46:25.580Z,39.25
2023-04-18T14:56:28.038Z,38.98
2023-04-18T15:06:30.422Z,38.49
2023-04-18T15:16:32.629Z,37.89
2023-04-18T15:26:34.798Z,38.23
2023-04-18T15:36:37.185Z,39.29
2023-04-18T15:46:39.530Z,39.01
2023-04-18T15:56:43.830Z,39.79
2023-04-18T16:06:45.913Z,39.75
2023-04-18T16:16:48.032Z,40.20
2023-04-18T16:26:52.134Z,40.07
2023-04-18T16:36:55.634Z,40.33
2023-04-18T16:46:58.006Z,41.76
2023-04-18T16:57:00.839Z,41.41
2023-04-18T17:07:02.974Z,42.40
2023-04-18T17:17:06.173Z,42.91
2023-04-18T17:27:08.510Z,41.83
2023-04-18T17:37:11.510Z,43.24
2023-04-18T17:47:19.248Z,42.60
2023-04-18T17:57:22.805Z,43.92
2023-04-18T18:07:24.933Z,43.32
2023-04-18T18:17:29.141Z,43.25
2023-04-18T18:27:31.428Z,45.45
2023-04-18T18:37:33.843Z,44.78
2023-04-18T18:47:38.949Z,45.09
2023-04-18T18:57:45.351Z,44.71
2023-04-18T19:07:48.237Z,44.04
2023-04-18T19:17:50.524Z,45.20
2023-04-18T19:27:52.738Z,45.79
2023-04-18T19:38:01.296Z,46.21
2023-04-18T19:48:03.973Z,45.58
2023-04-18T19:58:06.243Z,47.53
2023-04-18T20:08:08.411Z,46.21
2023-04-18T20:18:10.794Z,47.23
2023-04-18T20:28:12.869Z,44.78
2023-04-18T20:38:15.359Z,45.50
2023-04-18T20:48:18.148Z,46.66
2023-04-18T20:58:20.737Z,45.71
2023-04-18T21:08:22.926Z,44.82
2023-04-18T21:18:25.178Z,46.96
2023-04-18T21:28:27.300Z,47.99
2023-04-18T21:38:29.413Z,46.57
2023-04-18T21:48:31.982Z,47.00
2023-04-18T21:58:34.303Z,46.13
2023-04-18T22:08:36.667Z,47.39
2023-04-18T22:18:38.884Z,48.96
2023-04-18T22:28:41.158Z,47.79
2023-04-18T22:38:43.269Z,48.09
2023-04-18T22:48:46.219Z,47.41
2023-04-18T22:58:48.301Z,48.39
2023-04-18T23:08:50.355Z,48.81
2023-04-18T23:18:52.392Z,50.07
2023-04-18T23:28:54.487Z,49.47
2023-04-18T23:38:56.595Z,49.72
2023-04-18T23:48:58.696Z,53.18
2023-04-18T23:59:00.814Z,55.62
